createdAt,value
2018-08-03T00:02:15.841Z,72.40
2018-08-03T00:04:51.781Z,72.10
2018-08-03T00:07:27.194Z,71.70
2018-08-03T00:10:02.952Z,72.20
2018-08-03T00:12:38.190Z,72.30
2018-08-03T00:15:14.105Z,72.70
2018-08-03T00:17:49.492Z,72.70
2018-08-03T00:20:25.113Z,73.00
2018-08-03T00:23:00.660Z,73.10
2018-08-03T00:25:35.927Z,73.60
2018-08-03T00:28:11.261Z,73.30
2018-08-03T00:30:47.014Z,73.10
2018-08-03T00:33:23.066Z,73.00
2018-08-03T00:35:58.332Z,73.00
2018-08-03T00:38:33.625Z,73.00
2018-08-03T00:41:09.153Z,73.50
2018-08-03T00:43:44.496Z,73.10
2018-08-03T00:46:19.840Z,73.00
2018-08-03T00:48:55.193Z,73.20
2018-08-03T00:51:30.650Z,73.50
2018-08-03T00:54:06.990Z,73.30
2018-08-03T00:56:42.268Z,73.30
2018-08-03T00:59:17.585Z,73.20
2018-08-03T01:01:52.924Z,73.30
2018-08-03T01:04:28.343Z,73.40
2018-08-03T01:07:03.588Z,73.30
2018-08-03T01:09:38.973Z,73.50
2018-08-03T01:12:14.360Z,73.00
2018-08-03T01:14:50.126Z,73.10
2018-08-03T01:17:25.542Z,73.20
2018-08-03T01:20:00.905Z,73.40
2018-08-03T01:22:36.331Z,73.70
2018-08-03T01:25:11.718Z,73.90
2018-08-03T01:27:47.213Z,73.90
2018-08-03T01:30:22.648Z,73.80
2018-08-03T01:32:58.002Z,74.00
2018-08-03T01:35:33.536Z,73.60
2018-08-03T01:38:08.832Z,73.70
2018-08-03T01:40:45.292Z,73.60
2018-08-03T01:43:20.575Z,73.50
2018-08-03T01:45:55.600Z,73.80
2018-08-03T01:48:31.047Z,73.90
2018-08-03T01:51:06.690Z,73.90
2018-08-03T01:53:41.797Z,74.30
2018-08-03T01:56:17.273Z,73.80
2018-08-03T01:58:53.035Z,73.90
2018-08-03T02:01:28.576Z,74.00
2018-08-03T02:04:04.116Z,74.40
2018-08-03T02:06:40.275Z,74.80
2018-08-03T02:09:15.532Z,74.50
2018-08-03T02:11:50.235Z,74.60
2018-08-03T02:14:25.080Z,74.30
2018-08-03T02:17:00.422Z,74.30
2018-08-03T02:19:35.150Z,74.10
2018-08-03T02:22:09.858Z,74.20
2018-08-03T02:24:44.856Z,74.40
2018-08-03T02:27:20.277Z,74.50
2018-08-03T02:29:55.394Z,74.20
2018-08-03T02:32:30.208Z,74.40
2018-08-03T02:35:05.906Z,74.50
2018-08-03T02:37:41.299Z,74.60
2018-08-03T02:40:16.119Z,74.70
2018-08-03T02:42:50.798Z,74.70
2018-08-03T02:45:26.800Z,74.60
2018-08-03T02:48:01.622Z,74.40
2018-08-03T02:50:36.481Z,74.50
2018-08-03T02:53:11.320Z,75.10
2018-08-03T02:55:46.109Z,74.20
2018-08-03T02:58:20.866Z,74.30
2018-08-03T03:00:55.678Z,74.40
2018-08-03T03:03:30.755Z,74.60
2018-08-03T03:06:06.252Z,74.90
2018-08-03T03:08:41.765Z,75.10
2018-08-03T03:11:16.537Z,75.10
2018-08-03T03:13:51.321Z,75.00
2018-08-03T03:16:26.094Z,74.70
2018-08-03T03:19:01.922Z,74.70
2018-08-03T03:21:36.927Z,75.40
2018-08-03T03:24:11.714Z,75.10
2018-08-03T03:26:47.452Z,75.40
2018-08-03T03:29:22.466Z,75.20
2018-08-03T03:31:57.466Z,75.10
2018-08-03T03:34:32.870Z,74.90
2018-08-03T03:37:07.618Z,74.90
2018-08-03T03:39:42.569Z,75.70
2018-08-03T03:42:17.477Z,75.60
2018-08-03T03:44:52.213Z,75.70
2018-08-03T03:47:27.192Z,76.10
2018-08-03T03:50:02.287Z,76.00
2018-08-03T03:52:37.066Z,76.10
2018-08-03T03:55:11.840Z,76.20
2018-08-03T03:57:47.028Z,76.30
2018-08-03T04:00:21.766Z,76.50
2018-08-03T04:02:56.649Z,76.70
2018-08-03T04:05:31.233Z,76.30
2018-08-03T04:08:06.329Z,76.70
2018-08-03T04:10:40.998Z,77.10
2018-08-03T04:13:15.844Z,76.70
2018-08-03T04:15:50.550Z,76.70
2018-08-03T04:18:25.198Z,76.20
2018-08-03T04:21:00.336Z,76.20
2018-08-03T04:23:34.921Z,76.50
2018-08-03T04:26:09.545Z,76.50
2018-08-03T04:28:44.269Z,76.40
2018-08-03T04:31:18.918Z,76.30
2018-08-03T04:33:53.797Z,76.20
2018-08-03T04:36:28.541Z,76.30
2018-08-03T04:39:05.194Z,76.20
2018-08-03T04:41:40.831Z,76.30
2018-08-03T04:44:16.554Z,76.30
2018-08-03T04:46:51.361Z,76.60
2018-08-03T04:49:26.124Z,76.90
2018-08-03T04:52:01.517Z,76.80
2018-08-03T04:54:36.334Z,76.10
2018-08-03T04:57:11.605Z,76.80
2018-08-03T04:59:46.510Z,76.60
2018-08-03T05:02:21.262Z,76.70
2018-08-03T05:04:56.288Z,77.10
2018-08-03T05:07:31.546Z,77.40
2018-08-03T05:10:06.634Z,76.50
2018-08-03T05:12:41.338Z,76.80
2018-08-03T05:15:16.241Z,76.60
2018-08-03T05:17:50.983Z,76.50
2018-08-03T05:20:25.836Z,78.00
2018-08-03T05:23:01.117Z,77.40
2018-08-03T05:25:36.601Z,77.00
2018-08-03T05:28:12.237Z,76.50
2018-08-03T05:30:47.069Z,76.50
2018-08-03T05:33:22.521Z,76.20
2018-08-03T05:35:57.932Z,76.30
2018-08-03T05:38:33.374Z,76.80
2018-08-03T05:41:08.689Z,76.60
2018-08-03T05:43:45.550Z,76.90
2018-08-03T05:46:21.041Z,76.20
2018-08-03T05:48:56.331Z,76.40
2018-08-03T05:51:31.737Z,76.00
2018-08-03T05:54:07.379Z,76.10
2018-08-03T05:56:43.467Z,75.60
2018-08-03T05:59:18.634Z,75.70
2018-08-03T06:01:54.025Z,75.40
2018-08-03T06:04:29.477Z,75.40
2018-08-03T06:07:04.835Z,75.10
2018-08-03T06:09:40.302Z,74.20
2018-08-03T06:12:16.328Z,74.00
2018-08-03T06:14:51.668Z,74.00
2018-08-03T06:17:27.268Z,74.00
2018-08-03T06:20:02.962Z,73.70
2018-08-03T06:22:38.530Z,73.70
2018-08-03T06:25:13.852Z,74.30
2018-08-03T06:27:49.239Z,73.90
2018-08-03T06:30:24.788Z,74.00
2018-08-03T06:33:00.166Z,73.00
2018-08-03T06:35:35.616Z,73.20
2018-08-03T06:38:11.198Z,72.80
2018-08-03T06:40:46.657Z,72.20
2018-08-03T06:43:22.026Z,71.80
2018-08-03T06:45:57.543Z,72.40
2018-08-03T06:48:33.723Z,71.60
2018-08-03T06:51:09.173Z,71.50
2018-08-03T06:53:44.839Z,72.20
2018-08-03T06:56:20.638Z,71.20
2018-08-03T06:58:55.990Z,71.10
2018-08-03T07:01:31.462Z,71.80
2018-08-03T07:04:07.093Z,71.00
2018-08-03T07:06:42.450Z,70.20
2018-08-03T07:09:17.972Z,71.10
2018-08-03T07:11:53.334Z,69.80
2018-08-03T07:14:28.818Z,69.40
2018-08-03T07:17:04.238Z,69.30
2018-08-03T07:19:39.689Z,69.10
2018-08-03T07:22:14.917Z,70.40
2018-08-03T07:24:50.442Z,70.00
2018-08-03T07:27:25.878Z,70.30
2018-08-03T07:30:01.285Z,69.50
2018-08-03T07:32:36.729Z,68.40
2018-08-03T07:35:12.233Z,69.20
2018-08-03T07:37:47.766Z,68.50
2018-08-03T07:40:23.372Z,67.60
2018-08-03T07:42:58.763Z,67.10
2018-08-03T07:45:34.851Z,67.70
2018-08-03T07:48:10.050Z,67.30
2018-08-03T07:50:45.506Z,65.90
2018-08-03T07:53:21.100Z,66.60
2018-08-03T07:55:56.473Z,66.20
2018-08-03T07:58:31.846Z,66.10
2018-08-03T08:01:07.680Z,65.80
2018-08-03T08:03:42.975Z,65.20
2018-08-03T08:06:18.402Z,66.10
2018-08-03T08:08:53.965Z,65.60
2018-08-03T08:11:29.468Z,64.70
2018-08-03T08:14:04.931Z,64.10
2018-08-03T08:16:40.347Z,64.80
2018-08-03T08:19:15.819Z,63.70
2018-08-03T08:21:51.261Z,63.10
2018-08-03T08:24:26.991Z,63.70
2018-08-03T08:27:02.245Z,63.80
2018-08-03T08:29:37.720Z,63.00
2018-08-03T08:32:13.783Z,64.00
2018-08-03T08:34:49.294Z,63.10
2018-08-03T08:37:25.389Z,62.30
2018-08-03T08:40:00.860Z,61.60
2018-08-03T08:42:36.687Z,61.90
2018-08-03T08:47:46.865Z,60.40
2018-08-03T08:50:22.190Z,61.10
2018-08-03T08:52:58.034Z,59.70
2018-08-03T08:55:33.670Z,59.90
2018-08-03T08:58:09.004Z,60.30
2018-08-03T09:00:44.943Z,59.70
2018-08-03T09:03:20.770Z,60.70
2018-08-03T09:05:57.073Z,58.80
2018-08-03T09:08:32.999Z,59.50
2018-08-03T09:11:09.235Z,58.00
2018-08-03T09:13:45.106Z,58.20
2018-08-03T09:16:20.951Z,57.70
2018-08-03T09:18:57.043Z,57.10
2018-08-03T09:21:32.774Z,57.10
2018-08-03T09:24:09.301Z,56.60
2018-08-03T09:26:44.712Z,55.90
2018-08-03T09:29:20.168Z,55.20
2018-08-03T09:31:55.736Z,53.80
2018-08-03T09:34:30.644Z,52.50
2018-08-03T09:37:05.781Z,51.20
2018-08-03T09:39:41.030Z,50.50
2018-08-03T09:42:16.121Z,49.70
2018-08-03T09:44:51.157Z,48.80
2018-08-03T09:47:26.158Z,48.40
2018-08-03T09:50:01.268Z,47.60
2018-08-03T09:52:37.113Z,46.70
2018-08-03T09:55:12.731Z,47.10
2018-08-03T09:57:48.008Z,46.60
2018-08-03T10:00:29.162Z,47.10
2018-08-03T10:03:05.082Z,45.10
2018-08-03T10:05:40.171Z,44.40
2018-08-03T10:08:15.328Z,43.50
2018-08-03T10:10:50.353Z,44.30
2018-08-03T10:13:26.053Z,43.60
2018-08-03T10:16:01.100Z,42.40
2018-08-03T10:18:36.681Z,41.90
2018-08-03T10:21:12.477Z,42.10
2018-08-03T10:23:47.706Z,41.50
2018-08-03T10:26:23.248Z,41.20
2018-08-03T10:28:58.285Z,41.40
2018-08-03T10:31:33.345Z,41.20
2018-08-03T10:34:08.453Z,42.20
2018-08-03T10:36:43.609Z,42.80
2018-08-03T10:39:18.661Z,40.50
2018-08-03T10:41:53.674Z,40.20
2018-08-03T10:44:28.806Z,41.00
2018-08-03T10:47:03.961Z,40.50
2018-08-03T10:49:39.484Z,40.70
2018-08-03T10:52:14.488Z,39.50
2018-08-03T10:54:49.939Z,40.20
2018-08-03T10:57:25.173Z,39.90
2018-08-03T11:00:00.754Z,39.00
2018-08-03T11:02:36.094Z,39.00
2018-08-03T11:05:11.345Z,39.60
2018-08-03T11:07:46.860Z,39.10
2018-08-03T11:10:21.910Z,39.00
2018-08-03T11:12:57.068Z,38.50
2018-08-03T11:15:32.062Z,37.80
2018-08-03T11:18:08.022Z,38.40
2018-08-03T11:20:43.482Z,37.10
2018-08-03T11:23:18.507Z,37.30
2018-08-03T11:25:53.626Z,38.20
2018-08-03T11:28:28.765Z,37.30
2018-08-03T11:31:04.201Z,38.60
2018-08-03T11:33:39.402Z,38.20
2018-08-03T11:36:14.589Z,38.00
2018-08-03T11:38:49.640Z,37.90
2018-08-03T11:41:25.070Z,38.00
2018-08-03T11:44:01.814Z,37.60
2018-08-03T11:46:36.758Z,36.40
2018-08-03T11:49:11.913Z,37.20
2018-08-03T11:51:47.245Z,37.10
2018-08-03T11:54:22.273Z,37.20
2018-08-03T11:56:57.440Z,35.50
2018-08-03T11:59:32.572Z,35.90
2018-08-03T12:02:07.897Z,35.90
2018-08-03T12:04:42.869Z,35.90
2018-08-03T12:07:18.105Z,34.70
2018-08-03T12:09:53.105Z,33.60
2018-08-03T12:12:28.350Z,34.50
2018-08-03T12:15:03.685Z,35.30
2018-08-03T12:17:38.763Z,34.10
2018-08-03T12:20:13.974Z,33.90
2018-08-03T12:22:49.220Z,33.20
2018-08-03T12:25:24.190Z,34.50
2018-08-03T12:27:59.302Z,34.60
2018-08-03T12:30:35.116Z,34.50
2018-08-03T12:33:10.153Z,34.80
2018-08-03T12:35:45.130Z,33.80
2018-08-03T12:38:20.585Z,33.90
2018-08-03T12:40:56.312Z,33.40
2018-08-03T12:43:31.418Z,33.00
2018-08-03T12:46:06.827Z,34.70
2018-08-03T12:48:41.906Z,34.90
2018-08-03T12:51:16.936Z,35.00
2018-08-03T12:53:52.544Z,34.80
2018-08-03T12:56:28.159Z,34.90
2018-08-03T12:59:06.164Z,33.80
2018-08-03T13:01:41.250Z,34.30
2018-08-03T13:04:16.259Z,33.50
2018-08-03T13:06:52.061Z,33.00
2018-08-03T13:09:27.056Z,33.10
2018-08-03T13:12:02.525Z,34.30
2018-08-03T13:14:37.855Z,34.10
2018-08-03T13:17:12.882Z,33.40
2018-08-03T13:19:48.024Z,32.30
2018-08-03T13:22:24.380Z,32.10
2018-08-03T13:24:59.262Z,31.90
2018-08-03T13:27:34.361Z,32.60
2018-08-03T13:30:09.610Z,33.40
2018-08-03T13:32:44.839Z,31.70
2018-08-03T13:35:20.295Z,32.60
2018-08-03T13:37:55.578Z,31.60
2018-08-03T13:40:30.860Z,32.70
2018-08-03T13:43:05.974Z,32.10
2018-08-03T13:45:41.177Z,33.00
2018-08-03T13:48:17.134Z,32.30
2018-08-03T13:50:53.262Z,32.30
2018-08-03T13:53:28.734Z,30.60
2018-08-03T13:56:04.365Z,31.60
2018-08-03T13:58:40.330Z,32.80
2018-08-03T14:01:26.787Z,34.30
2018-08-03T14:04:02.064Z,35.30
2018-08-03T14:06:37.230Z,33.30
2018-08-03T14:09:12.452Z,34.60
2018-08-03T14:11:47.385Z,35.70
2018-08-03T14:14:22.576Z,34.80
2018-08-03T14:16:57.718Z,34.50
2018-08-03T14:19:32.802Z,33.30
2018-08-03T14:22:07.878Z,32.40
2018-08-03T14:24:43.068Z,32.70
2018-08-03T14:27:18.229Z,32.50
2018-08-03T14:29:53.429Z,33.90
2018-08-03T14:32:28.836Z,33.90
2018-08-03T14:35:03.801Z,32.90
2018-08-03T14:37:38.705Z,33.50
2018-08-03T14:40:13.633Z,33.20
2018-08-03T14:42:49.263Z,33.00
2018-08-03T14:45:24.575Z,33.40
2018-08-03T14:47:59.773Z,32.30
2018-08-03T14:50:35.049Z,33.30
2018-08-03T14:53:10.194Z,32.70
2018-08-03T14:55:45.552Z,33.10
2018-08-03T14:58:20.666Z,32.40
2018-08-03T15:00:55.646Z,31.90
2018-08-03T15:03:30.867Z,32.90
2018-08-03T15:06:06.573Z,32.30
2018-08-03T15:08:41.798Z,31.70
2018-08-03T15:11:16.837Z,31.70
2018-08-03T15:13:51.836Z,31.90
2018-08-03T15:16:28.028Z,31.30
2018-08-03T15:19:03.498Z,31.70
2018-08-03T15:21:38.674Z,32.20
2018-08-03T15:24:13.729Z,33.40
2018-08-03T15:26:48.878Z,34.20
2018-08-03T15:29:24.566Z,34.60
2018-08-03T15:31:59.706Z,35.00
2018-08-03T15:34:34.694Z,33.60
2018-08-03T15:37:09.847Z,33.10
2018-08-03T15:39:44.911Z,33.80
2018-08-03T15:42:20.442Z,32.90
2018-08-03T15:44:55.514Z,33.90
2018-08-03T15:47:30.903Z,32.70
2018-08-03T15:50:06.960Z,32.90
2018-08-03T15:52:42.112Z,33.80
2018-08-03T15:55:17.353Z,33.30
2018-08-03T15:57:53.284Z,33.70
2018-08-03T16:00:28.456Z,33.60
2018-08-03T16:03:03.742Z,33.40
2018-08-03T16:05:38.630Z,33.00
2018-08-03T16:08:13.815Z,34.00
2018-08-03T16:10:49.272Z,33.00
2018-08-03T16:13:24.505Z,33.50
2018-08-03T16:15:59.579Z,33.50
2018-08-03T16:18:34.870Z,33.20
2018-08-03T16:21:10.314Z,34.30
2018-08-03T16:23:45.470Z,34.10
2018-08-03T16:26:20.397Z,33.70
2018-08-03T16:28:55.933Z,34.70
2018-08-03T16:31:31.948Z,34.60
2018-08-03T16:34:08.227Z,34.30
2018-08-03T16:36:43.692Z,33.70
2018-08-03T16:39:18.641Z,34.10
2018-08-03T16:41:53.879Z,34.50
2018-08-03T16:44:29.022Z,34.70
2018-08-03T16:47:04.034Z,34.60
2018-08-03T16:49:39.045Z,35.30
2018-08-03T16:52:14.225Z,35.70
2018-08-03T16:54:49.550Z,35.40
2018-08-03T16:57:24.626Z,36.10
2018-08-03T17:02:34.401Z,35.70
2018-08-03T17:05:09.427Z,35.10
2018-08-03T17:07:44.538Z,35.20
2018-08-03T17:10:19.523Z,35.20
2018-08-03T17:12:54.726Z,35.90
2018-08-03T17:15:29.887Z,36.60
2018-08-03T17:18:05.288Z,37.00
2018-08-03T17:20:40.355Z,37.30
2018-08-03T17:23:16.053Z,36.60
2018-08-03T17:25:51.357Z,36.80
2018-08-03T17:28:26.514Z,37.60
2018-08-03T17:31:01.489Z,37.50
2018-08-03T17:33:37.341Z,38.10
2018-08-03T17:36:12.401Z,38.10
2018-08-03T17:38:47.832Z,38.60
2018-08-03T17:41:23.170Z,38.70
2018-08-03T17:43:58.308Z,38.70
2018-08-03T17:46:34.331Z,39.10
2018-08-03T17:49:10.178Z,39.20
2018-08-03T17:51:45.166Z,39.50
2018-08-03T17:54:20.163Z,40.00
2018-08-03T17:56:55.581Z,40.40
2018-08-03T17:59:30.550Z,40.50
2018-08-03T18:02:05.572Z,40.80
2018-08-03T18:04:41.114Z,40.80
2018-08-03T18:07:16.983Z,41.00
2018-08-03T18:09:52.493Z,41.30
2018-08-03T18:12:27.946Z,41.60
2018-08-03T18:15:03.535Z,41.80
2018-08-03T18:17:38.956Z,41.90
2018-08-03T18:20:14.486Z,42.30
2018-08-03T18:22:50.312Z,42.20
2018-08-03T18:25:25.774Z,42.60
2018-08-03T18:28:02.205Z,42.90
2018-08-03T18:30:37.805Z,43.00
2018-08-03T18:33:13.214Z,43.80
2018-08-03T18:35:48.789Z,43.90
2018-08-03T18:38:24.110Z,44.40
2018-08-03T18:40:59.548Z,45.20
2018-08-03T18:43:34.936Z,46.20
2018-08-03T18:46:10.373Z,46.30
2018-08-03T18:48:46.485Z,46.70
2018-08-03T18:51:22.536Z,47.60
2018-08-03T18:53:58.188Z,48.40
2018-08-03T18:56:34.561Z,48.80
2018-08-03T18:59:09.974Z,49.40
2018-08-03T19:01:45.413Z,49.50
2018-08-03T19:04:20.799Z,50.20
2018-08-03T19:06:56.196Z,50.80
2018-08-03T19:09:31.498Z,51.40
2018-08-03T19:12:06.692Z,51.80
2018-08-03T19:14:42.076Z,52.40
2018-08-03T19:17:17.479Z,51.90
2018-08-03T19:19:52.925Z,52.00
2018-08-03T19:22:28.349Z,52.30
2018-08-03T19:25:03.800Z,53.30
2018-08-03T19:27:39.245Z,54.30
2018-08-03T19:30:15.417Z,54.60
2018-08-03T19:32:51.714Z,54.80
2018-08-03T19:35:27.582Z,54.20
2018-08-03T19:38:03.050Z,53.50
2018-08-03T19:40:38.415Z,53.20
2018-08-03T19:43:13.739Z,52.90
2018-08-03T19:45:49.201Z,52.40
2018-08-03T19:48:24.542Z,53.20
2018-08-03T19:50:59.969Z,52.80
2018-08-03T19:53:35.393Z,52.70
2018-08-03T19:56:10.946Z,52.30
2018-08-03T19:58:46.681Z,54.00
2018-08-03T20:01:22.226Z,55.10
2018-08-03T20:03:57.978Z,55.90
2018-08-03T20:06:33.718Z,56.40
2018-08-03T20:09:11.588Z,56.50
2018-08-03T20:11:47.376Z,56.90
2018-08-03T20:14:23.521Z,56.60
2018-08-03T20:16:58.812Z,55.90
2018-08-03T20:19:34.443Z,55.50
2018-08-03T20:22:16.458Z,55.80
2018-08-03T20:24:52.022Z,57.50
2018-08-03T20:27:27.464Z,57.70
2018-08-03T20:30:02.988Z,57.40
2018-08-03T20:32:38.665Z,56.90
2018-08-03T20:35:15.007Z,56.90
2018-08-03T20:37:50.459Z,57.00
2018-08-03T20:40:25.861Z,57.00
2018-08-03T20:43:01.974Z,58.20
2018-08-03T20:45:37.641Z,58.50
2018-08-03T20:48:13.321Z,58.70
2018-08-03T20:50:48.713Z,59.10
2018-08-03T20:53:24.133Z,58.90
2018-08-03T20:55:59.516Z,59.10
2018-08-03T20:58:35.226Z,59.20
2018-08-03T21:01:10.990Z,59.60
2018-08-03T21:03:46.503Z,60.00
2018-08-03T21:06:21.881Z,60.30
2018-08-03T21:08:57.241Z,60.70
2018-08-03T21:11:33.122Z,61.00
2018-08-03T21:14:08.642Z,61.10
2018-08-03T21:16:43.894Z,60.80
2018-08-03T21:19:19.212Z,60.80
2018-08-03T21:21:54.562Z,60.60
2018-08-03T21:24:29.996Z,61.10
2018-08-03T21:27:05.794Z,61.30
2018-08-03T21:29:41.117Z,61.90
2018-08-03T21:32:16.530Z,62.40
2018-08-03T21:34:52.725Z,62.30
2018-08-03T21:37:28.074Z,62.70
2018-08-03T21:40:03.773Z,62.40
2018-08-03T21:42:39.173Z,62.60
2018-08-03T21:45:14.613Z,62.00
2018-08-03T21:47:49.926Z,62.00
2018-08-03T21:50:25.393Z,61.90
2018-08-03T21:53:00.629Z,62.30
2018-08-03T21:55:36.733Z,63.00
2018-08-03T21:58:12.509Z,63.40
2018-08-03T22:00:48.976Z,63.60
2018-08-03T22:03:24.515Z,64.30
2018-08-03T22:06:00.151Z,64.40
2018-08-03T22:08:35.549Z,64.10
2018-08-03T22:11:11.037Z,64.00
2018-08-03T22:13:46.409Z,63.90
2018-08-03T22:16:21.933Z,64.00
2018-08-03T22:18:57.331Z,64.00
2018-08-03T22:21:32.864Z,64.60
2018-08-03T22:24:08.323Z,64.20
2018-08-03T22:26:43.807Z,64.30
2018-08-03T22:29:19.159Z,64.50
2018-08-03T22:31:54.697Z,64.40
2018-08-03T22:34:30.216Z,64.40
2018-08-03T22:37:05.705Z,64.40
2018-08-03T22:39:41.114Z,64.70
2018-08-03T22:42:16.406Z,65.20
2018-08-03T22:44:51.797Z,65.10
2018-08-03T22:47:27.172Z,65.20
2018-08-03T22:50:02.985Z,65.30
2018-08-03T22:52:38.246Z,65.90
2018-08-03T22:55:13.589Z,65.80
2018-08-03T22:57:49.226Z,65.60
2018-08-03T23:00:24.564Z,65.80
2018-08-03T23:03:00.310Z,65.60
2018-08-03T23:05:35.642Z,65.70
2018-08-03T23:08:11.182Z,65.60
2018-08-03T23:10:46.689Z,65.80
2018-08-03T23:13:22.161Z,66.20
2018-08-03T23:15:57.648Z,66.20
2018-08-03T23:18:33.790Z,66.00
2018-08-03T23:21:09.113Z,66.40
2018-08-03T23:23:44.583Z,66.40
2018-08-03T23:26:20.120Z,66.50
2018-08-03T23:28:55.643Z,66.30
2018-08-03T23:31:31.035Z,66.50
2018-08-03T23:34:06.454Z,66.90
2018-08-03T23:36:41.745Z,67.50
2018-08-03T23:39:17.195Z,67.30
2018-08-03T23:41:52.438Z,67.10
2018-08-03T23:44:28.512Z,67.00
2018-08-03T23:47:03.991Z,67.20
2018-08-03T23:49:39.986Z,67.40
2018-08-03T23:52:15.673Z,67.60
2018-08-03T23:54:51.181Z,67.70
2018-08-03T23:57:26.569Z,67.80
